Time;durP1;ratioP1;P1;durP2;ratioP2;P2;SDS_P1;SDS_P2;PMS_P1;PMS_P2;Temp;Humidity;BMP_temperature;BMP_pressure;BME280_temperature;BME280_humidity;BME280_pressure;Samples;Min_cycle;Max_cycle;Signal;HPM_P1;HPM_P2
2022/01/25 00:08:24;;;;;;;58.73;20.60;;;;;5.00;102813.00;;;;5046119;28;20742;-72
2022/01/25 00:26:36;;;;;;;67.73;22.47;;;;;5.00;102802.00;;;;5050814;28;20298;-74
2022/01/25 00:29:30;;;;;;;60.73;22.70;;;;;5.00;102808.00;;;;5054403;28;20228;-74
2022/01/25 00:32:17;;;;;;;59.67;21.30;;;;;4.90;102801.00;;;;5053065;28;20330;-72
2022/01/25 00:35:05;;;;;;;63.63;21.40;;;;;4.90;102800.00;;;;5044542;28;20232;-74
2022/01/25 00:37:51;;;;;;;53.93;20.90;;;;;4.90;102803.00;;;;5051732;28;20272;-74
2022/01/25 00:40:39;;;;;;;58.77;22.73;;;;;5.10;102807.00;;;;5048522;28;20240;-71
2022/01/25 00:43:26;;;;;;;59.20;21.90;;;;;5.10;102815.00;;;;5051819;28;20236;-72
2022/01/25 00:46:14;;;;;;;59.33;22.40;;;;;5.00;102797.00;;;;5049048;28;20307;-72
2022/01/25 00:49:03;;;;;;;59.50;21.67;;;;;5.00;102796.00;;;;5048759;28;20355;-73
2022/01/25 00:52:06;;;;;;;54.03;20.67;;;;;5.00;102796.00;;;;5055512;28;20246;-72
2022/01/25 00:54:53;;;;;;;54.53;19.30;;;;;5.00;102791.00;;;;5052501;28;20232;-73
2022/01/25 00:57:42;;;;;;;57.50;19.67;;;;;5.00;102806.00;;;;5048194;28;20236;-73
2022/01/25 01:00:29;;;;;;;50.23;18.20;;;;;4.90;102766.00;;;;5045193;28;20236;-73
2022/01/25 01:03:16;;;;;;;48.90;18.87;;;;;4.90;102792.00;;;;5043193;28;20243;-73
2022/01/25 01:06:04;;;;;;;48.77;18.03;;;;;5.00;102797.00;;;;5049409;28;20347;-72
2022/01/25 01:08:51;;;;;;;49.13;17.77;;;;;4.90;102796.00;;;;5046698;28;20271;-71
2022/01/25 01:11:45;;;;;;;51.40;18.23;;;;;4.90;102795.00;;;;5050319;28;20244;-70
2022/01/25 01:14:52;;;;;;;51.60;18.93;;;;;4.80;102790.00;;;;5046313;28;20299;-72
2022/01/25 01:30:07;;;;;;;57.60;19.47;;;;;4.90;102781.00;;;;5014440;28;20922;-72
2022/01/25 01:33:21;;;;;;;62.90;20.87;;;;;4.90;102778.00;;;;5040997;28;20236;-72
2022/01/25 01:36:37;;;;;;;52.93;20.17;;;;;4.80;102788.00;;;;5053489;28;20227;-71
2022/01/25 01:39:51;;;;;;;54.07;20.43;;;;;4.80;102783.00;;;;5053273;28;20287;-73
2022/01/25 01:45:54;;;;;;;58.30;19.67;;;;;4.80;102789.00;;;;5046698;28;20232;-70
2022/01/25 01:48:50;;;;;;;49.97;17.67;;;;;4.80;102786.00;;;;5046081;28;20252;-74
2022/01/25 01:51:39;;;;;;;50.37;18.13;;;;;4.80;102796.00;;;;5052630;28;20364;-75
2022/01/25 01:54:25;;;;;;;52.07;18.57;;;;;4.80;102732.00;;;;5049311;28;20453;-74
2022/01/25 01:57:11;;;;;;;48.93;18.67;;;;;4.80;102788.00;;;;5048650;28;20227;-72
2022/01/25 01:59:58;;;;;;;49.37;18.70;;;;;4.70;102780.00;;;;5039685;28;20228;-74
2022/01/25 02:02:45;;;;;;;50.00;19.20;;;;;4.80;102780.00;;;;5040388;28;20718;-73
2022/01/25 02:05:32;;;;;;;52.87;18.60;;;;;4.70;102776.00;;;;5049211;28;20715;-75
2022/01/25 02:08:18;;;;;;;50.57;18.17;;;;;4.70;102775.00;;;;5037323;28;20229;-73
2022/01/25 02:11:06;;;;;;;43.97;18.07;;;;;4.70;102771.00;;;;5039825;28;20315;-73
2022/01/25 02:13:53;;;;;;;52.80;19.20;;;;;4.70;102763.00;;;;5057842;28;20227;-73
2022/01/25 02:16:56;;;;;;;46.53;18.23;;;;;4.70;102771.00;;;;5053847;28;20350;-73
2022/01/25 02:23:17;;;;;;;54.57;19.43;;;;;4.70;102776.00;;;;5023942;28;20239;-73
2022/01/25 02:26:06;;;;;;;47.90;18.80;;;;;4.70;102772.00;;;;5040332;28;20346;-73
2022/01/25 02:28:53;;;;;;;44.40;17.97;;;;;4.70;102764.00;;;;5055070;28;20229;-74
2022/01/25 02:31:39;;;;;;;47.23;18.60;;;;;4.70;102755.00;;;;5054471;28;20723;-71
2022/01/25 02:34:26;;;;;;;48.60;18.33;;;;;4.70;102759.00;;;;5048971;28;20271;-72
2022/01/25 02:37:16;;;;;;;45.27;18.67;;;;;4.70;102760.00;;;;5049122;28;20232;-72
2022/01/25 02:40:04;;;;;;;49.27;18.73;;;;;4.70;102770.00;;;;5039951;28;20256;-73
2022/01/25 02:42:51;;;;;;;51.87;18.73;;;;;4.60;102769.00;;;;5042888;28;20236;-72
2022/01/25 02:45:37;;;;;;;51.43;19.00;;;;;4.70;102762.00;;;;5053433;28;20231;-73
2022/01/25 02:48:31;;;;;;;49.60;19.37;;;;;4.70;102764.00;;;;5049784;28;20338;-72
2022/01/25 02:51:18;;;;;;;50.93;18.87;;;;;4.70;102763.00;;;;5044981;28;20227;-74
2022/01/25 02:54:08;;;;;;;50.93;19.73;;;;;4.70;102754.00;;;;5040353;28;20654;-69
2022/01/25 02:56:55;;;;;;;47.53;18.73;;;;;4.70;102762.00;;;;5049326;28;20217;-71
2022/01/25 02:59:41;;;;;;;44.60;18.20;;;;;4.70;102750.00;;;;5049498;28;20806;-73
2022/01/25 03:02:27;;;;;;;49.30;18.57;;;;;4.70;102762.00;;;;5038971;28;20330;-74
2022/01/25 03:05:14;;;;;;;45.23;18.90;;;;;4.70;102767.00;;;;5046948;28;20232;-73
2022/01/25 03:08:01;;;;;;;53.23;19.93;;;;;4.60;102762.00;;;;5044237;28;20310;-71
2022/01/25 03:10:49;;;;;;;46.53;19.10;;;;;4.70;102760.00;;;;5042648;28;20762;-73
2022/01/25 03:13:48;;;;;;;59.07;20.37;;;;;4.70;102765.00;;;;5044797;28;20237;-73
2022/01/25 03:16:40;;;;;;;48.60;18.37;;;;;4.60;102762.00;;;;5045350;28;20236;-73
2022/01/25 03:19:44;;;;;;;56.10;19.90;;;;;4.70;102767.00;;;;5047757;28;20224;-70
2022/01/25 03:22:44;;;;;;;46.90;19.30;;;;;4.60;102768.00;;;;5045602;28;20312;-74
2022/01/25 03:25:30;;;;;;;48.33;18.20;;;;;4.60;102751.00;;;;5066383;28;20934;-73
2022/01/25 03:28:20;;;;;;;48.37;17.70;;;;;4.60;102742.00;;;;5053278;28;20247;-73
2022/01/25 03:31:06;;;;;;;49.20;18.90;;;;;4.60;102743.00;;;;5051805;28;20799;-71
2022/01/25 03:33:53;;;;;;;48.53;18.07;;;;;4.50;102747.00;;;;5037442;28;20275;-73
2022/01/25 03:36:39;;;;;;;42.97;17.87;;;;;4.60;102747.00;;;;5044439;28;20232;-73
2022/01/25 03:39:25;;;;;;;47.90;19.57;;;;;4.60;102745.00;;;;5051086;28;20225;-72
2022/01/25 03:42:15;;;;;;;51.00;19.23;;;;;4.70;102737.00;;;;5048044;28;20232;-71
2022/01/25 03:45:03;;;;;;;53.10;18.73;;;;;4.60;102736.00;;;;5059662;28;20243;-74
2022/01/25 03:48:00;;;;;;;55.20;19.10;;;;;4.60;102732.00;;;;5046205;28;20363;-74
2022/01/25 03:50:47;;;;;;;46.33;18.03;;;;;4.60;102735.00;;;;5040361;28;20615;-71
2022/01/25 03:53:34;;;;;;;49.10;18.87;;;;;4.60;102715.00;;;;5049264;28;20302;-73
2022/01/25 03:56:21;;;;;;;53.23;19.70;;;;;4.60;102723.00;;;;5054180;28;20278;-73
2022/01/25 03:59:08;;;;;;;48.00;18.80;;;;;4.60;102730.00;;;;5050983;28;20268;-73
2022/01/25 04:01:55;;;;;;;51.97;19.40;;;;;4.60;102732.00;;;;5043707;28;20228;-73
2022/01/25 04:04:42;;;;;;;51.00;19.77;;;;;4.60;102726.00;;;;5056494;28;20236;-73
2022/01/25 04:07:42;;;;;;;54.27;18.93;;;;;4.60;102736.00;;;;5051548;28;20302;-75
2022/01/25 04:10:28;;;;;;;44.90;17.73;;;;;4.60;102732.00;;;;5049382;28;20228;-74
2022/01/25 04:13:15;;;;;;;51.17;19.40;;;;;4.50;102716.00;;;;5053058;28;20228;-74
2022/01/25 04:16:09;;;;;;;57.77;18.77;;;;;4.60;102720.00;;;;5042281;28;20237;-73
2022/01/25 04:19:03;;;;;;;44.43;18.10;;;;;4.60;102730.00;;;;5052627;28;20232;-72
2022/01/25 04:27:58;;;;;;;50.70;18.27;;;;;4.60;102734.00;;;;5053575;28;20216;-74
2022/01/25 04:30:44;;;;;;;52.47;19.60;;;;;4.50;102721.00;;;;5044834;28;20252;-73
2022/01/25 04:33:40;;;;;;;56.40;20.87;;;;;4.50;102714.00;;;;5052968;28;20290;-74
2022/01/25 04:36:53;;;;;;;48.23;18.70;;;;;4.50;102713.00;;;;5049333;28;20231;-72
2022/01/25 04:52:03;;;;;;;49.30;18.50;;;;;4.40;102720.00;;;;5034713;28;20306;-73
2022/01/25 04:54:57;;;;;;;45.23;17.00;;;;;4.40;102722.00;;;;5051593;28;20240;-73
2022/01/25 04:57:53;;;;;;;49.97;19.10;;;;;4.40;102726.00;;;;5043623;28;20299;-73
2022/01/25 05:00:39;;;;;;;49.43;17.80;;;;;4.40;102734.00;;;;5053046;28;20937;-74
2022/01/25 05:03:32;;;;;;;50.80;18.40;;;;;4.50;102724.00;;;;5046762;28;20375;-73
2022/01/25 05:06:19;;;;;;;47.40;16.90;;;;;4.50;102731.00;;;;5051266;28;20224;-73
2022/01/25 05:09:10;;;;;;;44.53;18.43;;;;;4.50;102726.00;;;;5041996;28;20302;-73
2022/01/25 05:11:58;;;;;;;51.43;19.20;;;;;4.40;102729.00;;;;5046694;28;20295;-72
2022/01/25 05:14:58;;;;;;;53.40;19.13;;;;;4.50;102718.00;;;;5038705;28;20310;-73
2022/01/25 05:17:45;;;;;;;46.30;17.27;;;;;4.40;102728.00;;;;5040471;28;20231;-74
2022/01/25 05:23:36;;;;;;;45.87;18.03;;;;;4.40;102728.00;;;;5049192;28;20302;-74
2022/01/25 05:26:24;;;;;;;44.50;17.00;;;;;4.50;102718.00;;;;5050815;28;20227;-72
2022/01/25 05:29:15;;;;;;;48.90;18.17;;;;;4.50;102714.00;;;;5057538;28;20232;-70
2022/01/25 05:32:02;;;;;;;52.87;18.53;;;;;4.50;102718.00;;;;5045925;28;20254;-73
2022/01/25 05:34:49;;;;;;;47.00;17.53;;;;;4.50;102715.00;;;;5053555;28;20295;-72
2022/01/25 05:37:41;;;;;;;51.87;18.53;;;;;4.50;102719.00;;;;5056758;28;20747;-73
2022/01/25 05:40:40;;;;;;;48.13;19.00;;;;;4.40;102727.00;;;;5032637;28;20272;-73
2022/01/25 05:46:41;;;;;;;42.60;17.57;;;;;4.40;102721.00;;;;5049564;28;20231;-73
2022/01/25 05:49:27;;;;;;;47.17;18.13;;;;;4.50;102722.00;;;;5053793;28;20228;-73
2022/01/25 05:52:14;;;;;;;52.10;17.97;;;;;4.40;102714.00;;;;5046395;28;20223;-73
2022/01/25 05:55:01;;;;;;;47.83;17.03;;;;;4.40;102718.00;;;;5052421;28;20240;-72
2022/01/25 05:57:48;;;;;;;45.97;18.63;;;;;4.40;102718.00;;;;5044278;28;20375;-73
2022/01/25 06:00:36;;;;;;;50.77;18.57;;;;;4.40;102715.00;;;;5047310;28;20315;-72
2022/01/25 06:03:23;;;;;;;52.43;18.90;;;;;4.40;102726.00;;;;5049738;28;20784;-73
2022/01/25 06:06:09;;;;;;;50.80;18.70;;;;;4.30;102728.00;;;;5049770;28;20224;-74
2022/01/25 06:08:55;;;;;;;49.17;16.90;;;;;4.30;102721.00;;;;5054433;28;20359;-74
2022/01/25 06:11:41;;;;;;;44.67;16.43;;;;;4.30;102719.00;;;;5047366;28;20228;-73
2022/01/25 06:14:28;;;;;;;54.03;17.97;;;;;4.30;102726.00;;;;5047630;28;20375;-73
2022/01/25 06:17:16;;;;;;;42.50;17.07;;;;;4.40;102708.00;;;;5046450;28;20235;-74
2022/01/25 06:20:02;;;;;;;44.37;16.70;;;;;4.40;102708.00;;;;5040193;28;20232;-73
2022/01/25 06:22:48;;;;;;;45.87;18.00;;;;;4.30;102717.00;;;;5038065;28;20379;-73
2022/01/25 06:25:35;;;;;;;47.13;17.93;;;;;4.30;102716.00;;;;5046819;28;20275;-73
2022/01/25 06:28:21;;;;;;;47.23;17.17;;;;;4.30;102723.00;;;;5050191;28;20240;-73
2022/01/25 06:31:08;;;;;;;48.30;18.70;;;;;4.40;102714.00;;;;5049603;28;20363;-74
2022/01/25 06:33:56;;;;;;;41.27;16.73;;;;;4.40;102713.00;;;;5040281;28;20247;-74
2022/01/25 06:36:43;;;;;;;44.10;16.73;;;;;4.30;102722.00;;;;5045676;28;20348;-73
2022/01/25 06:39:29;;;;;;;43.70;16.77;;;;;4.50;102723.00;;;;5055325;28;20232;-73
2022/01/25 06:42:15;;;;;;;49.23;19.13;;;;;4.40;102712.00;;;;5044944;28;20236;-74
2022/01/25 06:45:07;;;;;;;56.50;20.73;;;;;4.40;102719.00;;;;5039916;28;20355;-73
2022/01/25 06:47:53;;;;;;;47.80;17.60;;;;;4.30;102724.00;;;;5046840;28;20359;-72
2022/01/25 06:50:41;;;;;;;43.90;17.63;;;;;4.30;102722.00;;;;5046654;28;20232;-73
2022/01/25 06:53:27;;;;;;;49.47;19.20;;;;;4.30;102725.00;;;;5048886;28;20370;-72
2022/01/25 06:56:13;;;;;;;48.87;18.63;;;;;4.30;102717.00;;;;5047488;28;20252;-72
2022/01/25 06:59:00;;;;;;;53.43;19.27;;;;;4.50;102718.00;;;;5039177;28;20956;-72
2022/01/25 07:01:46;;;;;;;48.97;18.63;;;;;4.40;102722.00;;;;5053275;28;20266;-72
2022/01/25 07:04:33;;;;;;;51.03;18.97;;;;;4.40;102720.00;;;;5048913;28;20298;-73
2022/01/25 07:07:21;;;;;;;49.57;17.40;;;;;4.40;102720.00;;;;5048643;28;20239;-72
2022/01/25 07:10:08;;;;;;;53.37;18.17;;;;;4.40;102723.00;;;;5046014;28;20595;-73
2022/01/25 07:12:54;;;;;;;47.17;18.17;;;;;4.40;102726.00;;;;5038475;28;20243;-71
2022/01/25 07:15:41;;;;;;;52.03;19.33;;;;;4.50;102729.00;;;;5055967;28;20344;-73
2022/01/25 07:18:27;;;;;;;52.07;17.70;;;;;4.50;102723.00;;;;5036397;28;20229;-71
2022/01/25 07:21:13;;;;;;;51.37;18.33;;;;;4.50;102726.00;;;;5047152;28;20235;-72
2022/01/25 07:24:01;;;;;;;52.80;18.63;;;;;4.50;102727.00;;;;5058426;28;20603;-72
2022/01/25 07:26:48;;;;;;;49.27;19.33;;;;;4.50;102741.00;;;;5035588;28;20706;-71
2022/01/25 07:29:35;;;;;;;50.57;19.63;;;;;4.40;102721.00;;;;5038312;28;20237;-71
2022/01/25 07:32:22;;;;;;;52.27;17.67;;;;;4.40;102738.00;;;;5035178;28;20243;-72
2022/01/25 07:35:21;;;;;;;49.73;17.60;;;;;4.40;102738.00;;;;5056538;28;20235;-73
2022/01/25 07:38:09;;;;;;;50.80;17.47;;;;;4.50;102733.00;;;;5040545;28;20787;-72
2022/01/25 07:40:59;;;;;;;49.00;17.23;;;;;4.40;102733.00;;;;5043370;28;20228;-70
2022/01/25 07:43:50;;;;;;;48.23;16.73;;;;;4.40;102731.00;;;;5055205;28;20236;-71
2022/01/25 07:46:41;;;;;;;43.97;16.37;;;;;4.40;102733.00;;;;5053771;28;20275;-73
2022/01/25 07:49:28;;;;;;;51.13;17.27;;;;;4.50;102733.00;;;;5052853;28;20224;-72
2022/01/25 07:52:17;;;;;;;48.17;17.40;;;;;4.50;102734.00;;;;5047573;28;20720;-71
2022/01/25 07:55:04;;;;;;;48.97;18.47;;;;;4.40;102737.00;;;;5051130;28;20228;-71
2022/01/25 07:57:52;;;;;;;51.47;18.53;;;;;4.50;102736.00;;;;5046201;28;20295;-71
2022/01/25 08:00:38;;;;;;;57.20;19.07;;;;;4.50;102742.00;;;;5056222;28;20237;-72
2022/01/25 08:03:25;;;;;;;53.00;18.80;;;;;4.50;102737.00;;;;5048232;28;20244;-72
2022/01/25 08:06:13;;;;;;;59.70;19.73;;;;;4.50;102740.00;;;;5048258;28;20233;-71
2022/01/25 08:09:03;;;;;;;52.77;18.73;;;;;4.50;102746.00;;;;5043447;28;20278;-74
2022/01/25 08:11:56;;;;;;;48.73;17.07;;;;;4.50;102749.00;;;;5036928;28;20319;-72
2022/01/25 08:14:44;;;;;;;45.83;17.20;;;;;4.50;102742.00;;;;5035732;28;20229;-71
2022/01/25 08:17:30;;;;;;;46.93;17.27;;;;;4.50;102749.00;;;;5064297;28;20615;-72
2022/01/25 08:20:23;;;;;;;49.57;17.33;;;;;4.60;102739.00;;;;5049896;28;20229;-72
2022/01/25 08:23:26;;;;;;;46.30;18.73;;;;;4.50;102740.00;;;;5051730;28;20282;-69
2022/01/25 08:26:18;;;;;;;46.93;17.10;;;;;4.50;102744.00;;;;5047581;28;20780;-71
2022/01/25 08:29:14;;;;;;;45.37;17.53;;;;;4.50;102727.00;;;;5049993;28;20236;-70
2022/01/25 08:32:02;;;;;;;47.77;18.77;;;;;4.60;102741.00;;;;5041750;28;20232;-69
2022/01/25 08:34:49;;;;;;;58.10;19.27;;;;;4.70;102744.00;;;;5038312;28;20235;-71
2022/01/25 08:37:35;;;;;;;52.43;19.10;;;;;4.70;102747.00;;;;5068051;28;20687;-71
2022/01/25 08:40:30;;;;;;;52.33;18.97;;;;;4.70;102743.00;;;;5049405;28;20698;-71
2022/01/25 08:43:20;;;;;;;51.10;18.17;;;;;4.70;102751.00;;;;5044082;28;20356;-71
2022/01/25 08:46:09;;;;;;;50.73;18.33;;;;;4.70;102756.00;;;;5050521;28;20270;-72
2022/01/25 08:48:57;;;;;;;50.00;16.53;;;;;4.70;102752.00;;;;5040772;28;20228;-70
2022/01/25 08:51:46;;;;;;;54.93;19.50;;;;;4.60;102760.00;;;;5039242;28;20228;-71
2022/01/25 08:54:46;;;;;;;52.83;19.47;;;;;4.60;102758.00;;;;5050710;28;20236;-72
2022/01/25 08:57:35;;;;;;;48.27;17.80;;;;;4.70;102751.00;;;;5047133;28;20241;-70
2022/01/25 09:00:24;;;;;;;42.47;16.37;;;;;4.70;102753.00;;;;5051668;28;20726;-71
2022/01/25 09:03:12;;;;;;;52.30;17.47;;;;;4.70;102756.00;;;;5048595;28;20387;-72
2022/01/25 09:06:02;;;;;;;44.27;17.40;;;;;4.70;102738.00;;;;5041062;28;20232;-72
2022/01/25 09:08:50;;;;;;;53.80;18.53;;;;;4.70;102755.00;;;;5057241;28;20239;-71
2022/01/25 09:11:37;;;;;;;54.37;18.27;;;;;4.70;102758.00;;;;5048825;28;20603;-71
2022/01/25 09:14:23;;;;;;;51.27;18.07;;;;;4.80;102749.00;;;;5045788;28;20691;-72
2022/01/25 09:17:10;;;;;;;50.67;17.93;;;;;4.80;102754.00;;;;5059975;28;20294;-72
2022/01/25 09:19:56;;;;;;;53.53;18.07;;;;;4.80;102759.00;;;;5048164;28;20731;-73
2022/01/25 09:22:46;;;;;;;53.13;19.20;;;;;4.90;102756.00;;;;5038419;28;20228;-72
2022/01/25 09:25:49;;;;;;;53.53;19.20;;;;;4.90;102756.00;;;;5048851;28;20223;-72
2022/01/25 09:28:36;;;;;;;57.40;19.40;;;;;4.90;102757.00;;;;5052985;28;20244;-72
2022/01/25 09:31:22;;;;;;;50.77;18.33;;;;;4.90;102771.00;;;;5046197;28;20236;-72
2022/01/25 09:34:09;;;;;;;57.97;19.60;;;;;5.00;102761.00;;;;5051979;28;20254;-73
2022/01/25 09:36:55;;;;;;;54.63;19.20;;;;;4.90;102743.00;;;;5042017;28;20223;-72
2022/01/25 09:39:44;;;;;;;54.80;19.30;;;;;4.90;102760.00;;;;5052499;28;20223;-73
2022/01/25 09:42:31;;;;;;;48.80;17.90;;;;;4.90;102763.00;;;;5052365;28;20852;-72
2022/01/25 09:45:18;;;;;;;49.33;19.00;;;;;4.90;102773.00;;;;5049562;28;20745;-72
2022/01/25 09:48:06;;;;;;;55.33;19.77;;;;;4.90;102770.00;;;;5049693;28;20240;-73
2022/01/25 09:50:56;;;;;;;54.07;18.17;;;;;4.90;102775.00;;;;5040881;28;20224;-71
2022/01/25 09:53:42;;;;;;;49.70;17.80;;;;;5.00;102768.00;;;;5057353;28;21104;-73
2022/01/25 09:56:30;;;;;;;52.23;18.63;;;;;4.90;102781.00;;;;5055440;28;20348;-72
2022/01/25 09:59:16;;;;;;;54.47;19.47;;;;;5.10;102788.00;;;;5051168;28;20240;-72
2022/01/25 10:02:04;;;;;;;55.10;22.20;;;;;5.20;102780.00;;;;5040794;28;20232;-70
2022/01/25 10:04:51;;;;;;;49.60;18.77;;;;;5.10;102778.00;;;;5045158;28;20240;-70
2022/01/25 10:07:37;;;;;;;55.20;18.60;;;;;5.10;102779.00;;;;5045664;28;20347;-72
2022/01/25 10:10:24;;;;;;;66.50;23.07;;;;;5.10;102784.00;;;;5049586;28;20597;-72
2022/01/25 10:13:17;;;;;;;57.77;19.20;;;;;5.10;102783.00;;;;5045912;28;20224;-71
2022/01/25 10:16:05;;;;;;;53.87;18.43;;;;;5.00;102778.00;;;;5056134;28;20233;-72
2022/01/25 10:18:53;;;;;;;53.77;18.83;;;;;5.00;102787.00;;;;5047339;28;20230;-72
2022/01/25 10:21:41;;;;;;;53.67;18.67;;;;;5.00;102786.00;;;;5046063;28;20925;-72
2022/01/25 10:24:31;;;;;;;47.57;17.00;;;;;5.00;102791.00;;;;5047566;28;20233;-72
2022/01/25 10:30:18;;;;;;;51.73;18.03;;;;;5.00;102796.00;;;;5042055;28;20236;-73
2022/01/25 10:33:23;;;;;;;52.97;19.03;;;;;5.10;102798.00;;;;5045946;28;20586;-73
2022/01/25 10:36:12;;;;;;;50.70;17.70;;;;;5.20;102768.00;;;;5049458;28;20228;-71
2022/01/25 10:38:59;;;;;;;55.47;18.63;;;;;5.10;102790.00;;;;5049902;28;20243;-71
2022/01/25 10:41:45;;;;;;;50.03;17.80;;;;;5.20;102788.00;;;;5042718;28;20347;-73
2022/01/25 10:44:51;;;;;;;52.07;19.23;;;;;5.30;102789.00;;;;5052228;28;20916;-72
2022/01/25 10:47:45;;;;;;;51.70;18.43;;;;;5.20;102791.00;;;;5046322;28;21193;-72
2022/01/25 10:50:35;;;;;;;51.60;17.47;;;;;5.30;102793.00;;;;5060030;28;20882;-72
2022/01/25 10:53:22;;;;;;;56.50;19.07;;;;;5.30;102798.00;;;;5048291;28;20365;-72
2022/01/25 10:56:09;;;;;;;50.87;18.10;;;;;5.20;102786.00;;;;5046752;28;20699;-74
2022/01/25 10:59:01;;;;;;;47.70;17.63;;;;;5.10;102789.00;;;;5038908;28;20225;-72
2022/01/25 11:01:50;;;;;;;46.77;17.43;;;;;5.10;102795.00;;;;5046582;28;20236;-72
2022/01/25 11:04:41;;;;;;;52.63;17.53;;;;;5.10;102788.00;;;;5047307;28;20239;-71
2022/01/25 11:07:37;;;;;;;49.03;17.03;;;;;5.30;102790.00;;;;5040956;28;20294;-71
2022/01/25 11:10:23;;;;;;;54.80;18.73;;;;;5.30;102792.00;;;;5048154;28;20231;-72
2022/01/25 11:13:22;;;;;;;63.47;18.67;;;;;5.40;102786.00;;;;5045144;28;20227;-72
2022/01/25 11:16:10;;;;;;;49.37;18.17;;;;;5.50;102795.00;;;;5053643;28;20244;-71
2022/01/25 11:18:57;;;;;;;55.53;18.17;;;;;5.50;102792.00;;;;5044676;28;20255;-71
2022/01/25 11:21:45;;;;;;;52.60;17.90;;;;;5.30;102783.00;;;;5042554;28;20718;-72
2022/01/25 11:24:34;;;;;;;57.43;18.57;;;;;5.30;102782.00;;;;5038187;28;20252;-71
2022/01/25 11:27:22;;;;;;;49.23;17.37;;;;;5.30;102789.00;;;;5067518;28;20278;-72
2022/01/25 11:30:12;;;;;;;45.30;16.73;;;;;5.30;102789.00;;;;5044563;28;20934;-71
2022/01/25 11:32:59;;;;;;;44.70;15.70;;;;;5.40;102786.00;;;;5048159;28;20243;-73
2022/01/25 11:35:46;;;;;;;44.70;17.50;;;;;5.30;102775.00;;;;5051545;28;20227;-72
2022/01/25 11:38:35;;;;;;;48.17;17.53;;;;;5.40;102776.00;;;;5037585;28;20336;-69
2022/01/25 11:41:23;;;;;;;46.57;16.33;;;;;5.30;102776.00;;;;5035474;28;20307;-72
2022/01/25 11:44:14;;;;;;;46.43;16.90;;;;;5.40;102778.00;;;;5036207;28;20356;-71
2022/01/25 11:47:09;;;;;;;49.97;16.77;;;;;5.30;102767.00;;;;5068116;28;20299;-72
2022/01/25 11:49:58;;;;;;;45.57;17.70;;;;;5.40;102768.00;;;;5042142;28;20223;-70
2022/01/25 11:52:49;;;;;;;52.53;18.17;;;;;5.30;102768.00;;;;5046999;28;20318;-70
2022/01/25 11:55:39;;;;;;;49.27;18.63;;;;;5.30;102765.00;;;;5048142;28;20240;-70
2022/01/25 11:58:30;;;;;;;49.03;17.50;;;;;5.40;102766.00;;;;5050878;28;20336;-71
2022/01/25 12:01:18;;;;;;;44.57;16.80;;;;;5.40;102761.00;;;;5048026;28;20596;-70
2022/01/25 12:04:07;;;;;;;51.17;17.80;;;;;5.40;102766.00;;;;5039952;28;20240;-73
2022/01/25 12:07:01;;;;;;;51.50;17.13;;;;;5.30;102768.00;;;;5051631;28;20221;-73
2022/01/25 12:09:50;;;;;;;45.33;16.53;;;;;5.20;102770.00;;;;5041411;28;20228;-73
2022/01/25 12:12:38;;;;;;;46.93;18.37;;;;;5.40;102765.00;;;;5050918;28;20235;-72
2022/01/25 12:15:24;;;;;;;55.03;18.53;;;;;5.30;102769.00;;;;5046849;28;20228;-68
2022/01/25 12:18:31;;;;;;;52.17;18.03;;;;;5.20;102761.00;;;;5051747;28;20232;-71
2022/01/25 12:21:54;;;;;;;44.10;16.63;;;;;5.50;102762.00;;;;5040565;28;20229;-68
2022/01/25 12:24:52;;;;;;;47.77;17.07;;;;;5.30;102756.00;;;;5043868;28;20769;-71
2022/01/25 12:27:53;;;;;;;50.67;16.90;;;;;5.30;102756.00;;;;5047182;28;20712;-68
2022/01/25 12:30:43;;;;;;;48.47;17.30;;;;;5.30;102748.00;;;;5041816;28;21031;-71
2022/01/25 12:33:30;;;;;;;42.20;16.20;;;;;5.20;102746.00;;;;5063710;28;20725;-69
2022/01/25 12:36:17;;;;;;;54.43;17.33;;;;;5.20;102742.00;;;;5047139;28;20602;-71
2022/01/25 12:39:09;;;;;;;46.13;16.53;;;;;5.20;102735.00;;;;5061495;28;20231;-72
2022/01/25 12:41:59;;;;;;;47.63;16.40;;;;;5.20;102732.00;;;;5038690;28;20284;-72
2022/01/25 12:44:54;;;;;;;45.17;16.03;;;;;5.20;102738.00;;;;5067611;28;20659;-71
2022/01/25 12:47:51;;;;;;;50.97;17.67;;;;;5.30;102727.00;;;;5052289;28;20225;-73
2022/01/25 12:50:39;;;;;;;44.73;16.10;;;;;5.20;102730.00;;;;5047518;28;20608;-69
2022/01/25 12:53:27;;;;;;;40.77;15.77;;;;;5.30;102725.00;;;;5044878;28;20791;-73
2022/01/25 12:56:16;;;;;;;45.13;16.27;;;;;5.30;102720.00;;;;5055703;28;20232;-71
2022/01/25 12:59:05;;;;;;;44.93;16.13;;;;;5.30;102725.00;;;;5043329;28;20220;-73
2022/01/25 13:01:55;;;;;;;47.07;17.57;;;;;5.30;102721.00;;;;5047021;28;20228;-73
2022/01/25 13:04:41;;;;;;;49.63;16.80;;;;;5.30;102725.00;;;;5048128;28;20596;-72
2022/01/25 13:07:27;;;;;;;47.90;16.43;;;;;5.30;102718.00;;;;5045498;28;20327;-69
2022/01/25 13:10:24;;;;;;;41.87;15.87;;;;;5.30;102711.00;;;;5048586;28;20252;-70
2022/01/25 13:13:22;;;;;;;44.83;16.20;;;;;5.20;102711.00;;;;5050476;28;20225;-72
2022/01/25 13:16:08;;;;;;;43.73;16.27;;;;;5.30;102709.00;;;;5043872;28;20666;-72
2022/01/25 13:18:59;;;;;;;43.43;15.67;;;;;5.30;102705.00;;;;5048435;28;20221;-71
2022/01/25 13:21:49;;;;;;;47.13;16.90;;;;;5.20;102704.00;;;;5042655;28;20228;-72
2022/01/25 13:24:59;;;;;;;45.77;17.77;;;;;5.20;102702.00;;;;5050922;28;20236;-72
2022/01/25 13:27:50;;;;;;;41.83;15.70;;;;;5.20;102707.00;;;;5061269;28;20770;-72
2022/01/25 13:30:45;;;;;;;43.77;16.37;;;;;5.20;102699.00;;;;5059161;28;20241;-72
2022/01/25 13:33:31;;;;;;;39.13;14.80;;;;;5.20;102708.00;;;;5050952;28;20283;-73
2022/01/25 13:36:20;;;;;;;41.43;15.30;;;;;5.30;102705.00;;;;5052017;28;20224;-71
2022/01/25 13:39:11;;;;;;;38.73;14.27;;;;;5.20;102699.00;;;;5042274;28;22026;-71
2022/01/25 13:42:03;;;;;;;42.40;16.30;;;;;5.30;102699.00;;;;5051345;28;20294;-71
2022/01/25 13:48:14;;;;;;;44.23;15.43;;;;;5.30;102702.00;;;;5053221;28;20248;-72
2022/01/25 13:51:02;;;;;;;51.20;17.37;;;;;5.30;102701.00;;;;5042671;28;20270;-72
2022/01/25 13:53:57;;;;;;;45.33;15.90;;;;;5.20;102699.00;;;;5032945;28;20228;-72
2022/01/25 13:56:43;;;;;;;39.30;15.23;;;;;5.20;102693.00;;;;5034295;28;20251;-72
2022/01/25 13:59:30;;;;;;;42.93;15.07;;;;;5.20;102696.00;;;;5034278;28;20248;-73
2022/01/25 14:02:16;;;;;;;39.20;14.37;;;;;5.20;102686.00;;;;5042490;28;20310;-72
2022/01/25 14:05:04;;;;;;;41.27;14.87;;;;;5.20;102693.00;;;;5042189;28;20237;-73
2022/01/25 14:07:53;;;;;;;41.77;14.20;;;;;5.20;102690.00;;;;5050703;28;20790;-73
2022/01/25 14:10:45;;;;;;;38.23;14.90;;;;;5.20;102695.00;;;;5052242;28;20236;-71
2022/01/25 14:22:53;;;;;;;43.67;15.70;;;;;5.20;102680.00;;;;5038675;28;20236;-71
2022/01/25 14:25:43;;;;;;;47.07;16.33;;;;;5.10;102676.00;;;;5039256;28;20231;-72
2022/01/25 14:28:32;;;;;;;39.07;14.70;;;;;5.20;102687.00;;;;5039982;28;20236;-71
2022/01/25 14:31:20;;;;;;;43.97;16.03;;;;;5.10;102686.00;;;;5034766;28;20228;-70
2022/01/25 14:34:07;;;;;;;44.53;16.03;;;;;5.00;102679.00;;;;5040417;28;20231;-71
2022/01/25 14:36:53;;;;;;;41.27;14.97;;;;;5.10;102677.00;;;;5040005;28;20299;-72
2022/01/25 14:39:43;;;;;;;46.90;16.17;;;;;5.10;102689.00;;;;5046281;28;20224;-71
2022/01/25 14:42:31;;;;;;;43.87;15.70;;;;;5.00;102696.00;;;;5037680;28;20240;-70
2022/01/25 14:45:21;;;;;;;49.83;15.83;;;;;5.00;102688.00;;;;5035660;28;20337;-70
2022/01/25 14:48:15;;;;;;;45.30;15.77;;;;;5.00;102687.00;;;;5044139;28;20239;-71
2022/01/25 14:51:03;;;;;;;44.90;15.73;;;;;5.00;102697.00;;;;5043387;28;20231;-68
2022/01/25 14:53:54;;;;;;;45.77;17.23;;;;;5.00;102682.00;;;;5052335;28;20302;-72
2022/01/25 14:56:47;;;;;;;50.27;17.93;;;;;5.10;102675.00;;;;5051612;28;20220;-70
2022/01/25 14:59:38;;;;;;;43.57;16.10;;;;;5.10;102688.00;;;;5050409;28;20322;-69
2022/01/25 15:02:26;;;;;;;45.20;15.53;;;;;5.00;102696.00;;;;5052830;28;20303;-72
2022/01/25 15:05:12;;;;;;;47.43;15.17;;;;;5.00;102688.00;;;;5050980;28;20228;-72
2022/01/25 15:07:59;;;;;;;50.47;18.30;;;;;5.00;102675.00;;;;5044228;28;20715;-71
2022/01/25 15:10:45;;;;;;;42.73;16.97;;;;;5.00;102675.00;;;;5048481;28;20282;-72